createdAt,value
2022-08-26T00:01:06.468Z,7.25
2022-08-26T00:04:09.313Z,5.68
2022-08-26T00:07:15.707Z,6.03
2022-08-26T00:10:18.697Z,6.88
2022-08-26T00:13:21.646Z,6.65
2022-08-26T00:16:24.545Z,6.32
2022-08-26T00:19:27.440Z,4.82
2022-08-26T00:22:30.411Z,5.22
2022-08-26T00:25:32.822Z,5.45
2022-08-26T00:28:35.534Z,5.47
2022-08-26T00:31:38.676Z,6.00
2022-08-26T00:34:42.691Z,5.40
2022-08-26T00:37:45.571Z,6.00
2022-08-26T00:40:49.255Z,4.43
2022-08-26T00:43:52.923Z,5.38
2022-08-26T00:46:55.605Z,4.13
2022-08-26T00:49:58.191Z,4.55
2022-08-26T00:53:01.398Z,4.88
2022-08-26T00:56:04.325Z,4.38
2022-08-26T00:59:08.601Z,4.07
2022-08-26T01:02:20.176Z,4.55
2022-08-26T01:05:24.005Z,3.92
2022-08-26T01:08:26.125Z,6.03
2022-08-26T01:11:30.187Z,4.15
2022-08-26T01:14:32.627Z,4.13
2022-08-26T01:17:35.358Z,5.07
2022-08-26T01:20:38.791Z,4.30
2022-08-26T01:23:42.114Z,4.18
2022-08-26T01:26:48.296Z,3.85
2022-08-26T01:29:52.297Z,5.05
2022-08-26T01:32:56.100Z,3.10
2022-08-26T01:35:58.661Z,3.85
2022-08-26T01:39:01.620Z,4.43
2022-08-26T01:42:10.453Z,5.83
2022-08-26T01:45:13.324Z,5.38
2022-08-26T01:48:15.831Z,3.55
2022-08-26T01:51:18.063Z,4.25
2022-08-26T01:54:21.120Z,5.20
2022-08-26T01:57:25.039Z,4.63
2022-08-26T02:00:27.285Z,4.25
2022-08-26T02:03:30.245Z,4.30
2022-08-26T02:06:33.694Z,3.38
2022-08-26T02:09:41.242Z,4.30
2022-08-26T02:12:44.526Z,3.92
2022-08-26T02:15:46.909Z,3.70
2022-08-26T02:18:50.520Z,3.38
2022-08-26T02:21:56.703Z,3.60
2022-08-26T02:25:00.065Z,3.72
2022-08-26T02:28:02.980Z,4.13
2022-08-26T02:31:05.589Z,4.57
2022-08-26T02:34:10.729Z,3.65
2022-08-26T02:37:13.549Z,3.83
2022-08-26T02:40:16.271Z,3.75
2022-08-26T02:43:18.550Z,3.80
2022-08-26T02:46:29.748Z,3.22
2022-08-26T02:49:32.820Z,3.22
2022-08-26T02:52:35.626Z,3.72
2022-08-26T02:55:39.677Z,3.85
2022-08-26T02:58:42.940Z,4.53
2022-08-26T03:01:46.252Z,3.70
2022-08-26T03:04:57.351Z,4.30
2022-08-26T03:08:00.659Z,3.80
2022-08-26T03:11:02.867Z,5.70
2022-08-26T03:14:05.963Z,4.50
2022-08-26T03:17:09.628Z,3.47
2022-08-26T03:20:13.614Z,3.55
2022-08-26T03:23:18.500Z,3.58
2022-08-26T03:26:21.238Z,3.58
2022-08-26T03:29:24.121Z,2.65
2022-08-26T03:32:27.249Z,3.60
2022-08-26T03:35:30.275Z,3.17
2022-08-26T03:38:33.285Z,2.45
2022-08-26T03:41:35.443Z,5.28
2022-08-26T03:44:42.135Z,4.35
2022-08-26T03:47:45.143Z,5.13
2022-08-26T03:50:48.799Z,3.42
2022-08-26T03:53:53.542Z,5.75
2022-08-26T03:56:56.510Z,3.65
2022-08-26T04:00:01.151Z,4.50
2022-08-26T04:03:11.158Z,3.63
2022-08-26T04:06:15.259Z,4.57
2022-08-26T04:09:19.940Z,3.75
2022-08-26T04:12:24.198Z,3.38
2022-08-26T04:15:28.138Z,4.18
2022-08-26T04:18:33.186Z,3.42
2022-08-26T04:21:39.841Z,3.78
2022-08-26T04:24:43.103Z,3.75
2022-08-26T04:27:46.436Z,2.95
2022-08-26T04:30:50.880Z,3.60
2022-08-26T04:33:53.508Z,4.25
2022-08-26T04:36:57.896Z,4.82
2022-08-26T04:40:00.891Z,8.05
2022-08-26T04:43:03.772Z,8.45
2022-08-26T04:46:06.770Z,6.38
2022-08-26T04:49:09.760Z,5.70
2022-08-26T04:52:12.693Z,5.53
2022-08-26T04:55:16.078Z,5.72
2022-08-26T04:58:19.056Z,5.75
2022-08-26T05:01:22.052Z,5.18
2022-08-26T05:04:26.421Z,3.47
2022-08-26T05:07:29.341Z,4.90
2022-08-26T05:10:34.306Z,19.20
2022-08-26T05:13:36.714Z,16.98
2022-08-26T05:16:40.395Z,10.45
2022-08-26T05:19:43.215Z,14.60
2022-08-26T05:22:46.525Z,14.45
2022-08-26T05:25:50.613Z,7.15
2022-08-26T05:28:54.922Z,5.93
2022-08-26T05:31:57.915Z,3.92
2022-08-26T05:35:01.319Z,4.50
2022-08-26T05:38:03.618Z,4.80
2022-08-26T05:41:07.265Z,4.88
2022-08-26T05:44:10.501Z,4.32
2022-08-26T05:47:13.405Z,4.35
2022-08-26T05:50:16.485Z,5.18
2022-08-26T05:53:19.015Z,6.47
2022-08-26T05:56:23.422Z,6.18
2022-08-26T05:59:26.498Z,8.07
2022-08-26T06:02:30.701Z,6.05
2022-08-26T06:05:37.839Z,8.48
2022-08-26T06:08:42.005Z,5.85
2022-08-26T06:11:44.959Z,6.03
2022-08-26T06:14:49.042Z,6.03
2022-08-26T06:17:51.912Z,5.28
2022-08-26T06:20:57.654Z,7.15
2022-08-26T06:24:01.248Z,7.07
2022-08-26T06:27:04.556Z,7.03
2022-08-26T06:30:07.739Z,6.95
2022-08-26T06:33:10.844Z,4.95
2022-08-26T06:36:13.747Z,7.63
2022-08-26T06:39:17.972Z,4.78
2022-08-26T06:42:22.812Z,5.25
2022-08-26T06:45:26.778Z,7.25
2022-08-26T06:48:29.645Z,6.28
2022-08-26T06:51:31.906Z,3.40
2022-08-26T06:54:38.859Z,7.95
2022-08-26T06:57:42.168Z,5.63
2022-08-26T07:00:47.481Z,5.72
2022-08-26T07:03:50.854Z,10.27
2022-08-26T07:06:54.196Z,6.80
2022-08-26T07:09:57.941Z,7.05
2022-08-26T07:13:01.306Z,12.57
2022-08-26T07:16:05.173Z,7.25
2022-08-26T07:19:11.239Z,8.38
2022-08-26T07:22:13.934Z,6.28
2022-08-26T07:25:16.714Z,7.00
2022-08-26T07:28:22.139Z,6.88
2022-08-26T07:31:25.245Z,7.75
2022-08-26T07:34:27.971Z,7.00
2022-08-26T07:37:30.646Z,6.82
2022-08-26T07:40:41.708Z,4.82
2022-08-26T07:43:44.745Z,7.68
2022-08-26T07:46:52.319Z,4.80
2022-08-26T07:49:56.344Z,6.47
2022-08-26T07:52:58.791Z,6.53
2022-08-26T07:56:01.281Z,9.38
2022-08-26T07:59:13.507Z,5.07
2022-08-26T08:02:17.619Z,5.22
2022-08-26T08:05:21.551Z,4.55
2022-08-26T08:08:27.792Z,6.47
2022-08-26T08:11:31.981Z,7.55
2022-08-26T08:14:35.064Z,5.53
2022-08-26T08:17:37.381Z,8.20
2022-08-26T08:20:44.751Z,8.65
2022-08-26T08:23:50.043Z,7.40
2022-08-26T08:26:52.803Z,4.90
2022-08-26T08:29:58.336Z,6.22
2022-08-26T08:33:00.964Z,7.80
2022-08-26T08:36:03.697Z,5.18
2022-08-26T08:39:07.219Z,5.75
2022-08-26T08:42:10.808Z,5.22
2022-08-26T08:45:13.281Z,3.30
2022-08-26T08:48:16.148Z,4.90
2022-08-26T08:51:19.230Z,5.90
2022-08-26T08:54:22.749Z,5.53
2022-08-26T08:57:25.269Z,5.85
2022-08-26T09:00:30.430Z,6.90
2022-08-26T09:03:34.177Z,6.25
2022-08-26T09:06:37.370Z,7.22
2022-08-26T09:09:43.708Z,7.30
2022-08-26T09:12:47.788Z,7.32
2022-08-26T09:15:50.316Z,5.53
2022-08-26T09:18:52.848Z,5.22
2022-08-26T09:21:55.522Z,4.78
2022-08-26T09:24:59.401Z,4.72
2022-08-26T09:28:02.488Z,6.80
2022-08-26T09:31:10.688Z,3.35
2022-08-26T09:34:17.557Z,5.78
2022-08-26T09:37:21.181Z,4.30
2022-08-26T09:40:23.953Z,11.35
2022-08-26T09:43:29.862Z,7.00
2022-08-26T09:46:32.798Z,5.15
2022-08-26T09:49:38.849Z,5.97
2022-08-26T09:52:42.771Z,5.15
2022-08-26T09:55:45.789Z,8.68
2022-08-26T09:58:48.653Z,6.68
2022-08-26T10:01:51.332Z,6.97
2022-08-26T10:04:55.036Z,5.03
2022-08-26T10:07:59.652Z,5.57
2022-08-26T10:11:02.329Z,7.05
2022-08-26T10:14:05.089Z,4.53
2022-08-26T10:17:07.942Z,2.53
2022-08-26T10:20:23.630Z,8.02
2022-08-26T10:23:26.618Z,3.20
2022-08-26T10:26:28.902Z,8.50
2022-08-26T10:29:31.493Z,63.88
2022-08-26T10:32:34.777Z,105.25
2022-08-26T10:35:44.538Z,119.95
2022-08-26T10:38:47.805Z,107.72
2022-08-26T10:41:50.998Z,104.05
2022-08-26T10:44:53.763Z,102.15
2022-08-26T10:48:01.137Z,93.35
2022-08-26T10:51:03.670Z,92.72
2022-08-26T10:54:07.429Z,91.72
2022-08-26T10:57:11.395Z,92.60
2022-08-26T11:00:14.090Z,88.00
2022-08-26T11:03:21.831Z,89.57
2022-08-26T11:06:25.067Z,94.63
2022-08-26T11:09:28.863Z,88.25
2022-08-26T11:12:31.328Z,81.82
2022-08-26T11:15:35.261Z,86.90
2022-08-26T11:18:38.113Z,80.70
2022-08-26T11:21:41.091Z,83.13
2022-08-26T11:24:44.899Z,72.65
2022-08-26T11:27:47.786Z,79.32
2022-08-26T11:30:58.196Z,73.97
2022-08-26T11:34:00.798Z,71.82
2022-08-26T11:37:03.421Z,69.25
2022-08-26T11:40:07.282Z,70.18
2022-08-26T11:43:11.528Z,63.10
2022-08-26T11:46:13.933Z,63.00
2022-08-26T11:49:16.669Z,62.45
2022-08-26T11:52:20.856Z,63.08
2022-08-26T11:55:24.336Z,60.35
2022-08-26T11:58:27.514Z,58.35
2022-08-26T12:01:31.327Z,55.10
2022-08-26T12:04:34.903Z,54.95
2022-08-26T12:07:37.377Z,56.97
2022-08-26T12:10:44.956Z,52.75
2022-08-26T12:13:47.173Z,50.17
2022-08-26T12:16:50.271Z,46.88
2022-08-26T12:19:53.589Z,41.45
2022-08-26T12:22:56.652Z,39.22
2022-08-26T12:25:59.674Z,41.92
2022-08-26T12:29:02.255Z,43.90
2022-08-26T12:32:21.909Z,39.08
2022-08-26T12:35:25.560Z,38.70
2022-08-26T12:38:28.488Z,40.28
2022-08-26T12:41:31.533Z,33.90
2022-08-26T12:44:35.223Z,33.35
2022-08-26T12:47:42.484Z,33.30
2022-08-26T12:50:46.968Z,33.17
2022-08-26T12:53:49.836Z,29.42
2022-08-26T12:56:52.762Z,28.70
2022-08-26T12:59:55.732Z,26.17
2022-08-26T13:02:58.506Z,26.40
2022-08-26T13:06:00.789Z,24.40
2022-08-26T13:09:03.447Z,24.58
2022-08-26T13:12:06.155Z,22.95
2022-08-26T13:15:08.784Z,23.23
2022-08-26T13:18:11.378Z,22.23
2022-08-26T13:21:13.731Z,23.00
2022-08-26T13:24:17.173Z,22.73
2022-08-26T13:27:19.356Z,21.45
2022-08-26T13:30:21.590Z,19.85
2022-08-26T13:33:25.104Z,18.92
2022-08-26T13:36:27.967Z,18.13
2022-08-26T13:39:30.678Z,16.77
2022-08-26T13:42:34.440Z,16.10
2022-08-26T13:45:37.065Z,15.82
2022-08-26T13:48:39.434Z,15.60
2022-08-26T13:51:45.312Z,17.38
2022-08-26T13:54:48.382Z,15.93
2022-08-26T13:57:52.175Z,13.93
2022-08-26T14:00:55.236Z,12.15
2022-08-26T14:03:57.792Z,11.95
2022-08-26T14:07:00.766Z,14.57
2022-08-26T14:10:03.957Z,11.00
2022-08-26T14:13:07.619Z,11.45
2022-08-26T14:16:10.080Z,14.55
2022-08-26T14:19:13.051Z,11.40
2022-08-26T14:22:16.066Z,11.85
2022-08-26T14:25:18.714Z,9.73
2022-08-26T14:28:20.726Z,7.07
2022-08-26T14:31:23.716Z,5.60
2022-08-26T14:34:26.534Z,5.85
2022-08-26T14:37:30.158Z,4.10
2022-08-26T14:40:33.881Z,2.83
2022-08-26T14:43:41.108Z,4.32
2022-08-26T14:46:43.854Z,4.75
2022-08-26T14:49:46.582Z,3.63
2022-08-26T14:52:49.302Z,4.35
2022-08-26T14:55:52.313Z,3.60
2022-08-26T14:58:55.639Z,4.05
2022-08-26T15:01:59.164Z,3.13
2022-08-26T15:05:02.724Z,3.55
2022-08-26T15:08:05.853Z,3.47
2022-08-26T15:11:08.516Z,4.63
2022-08-26T15:14:14.881Z,3.38
2022-08-26T15:17:22.130Z,4.03
2022-08-26T15:20:24.395Z,3.63
2022-08-26T15:23:26.900Z,3.90
2022-08-26T15:26:30.636Z,4.25
2022-08-26T15:29:33.361Z,4.43
2022-08-26T15:32:39.165Z,3.85
2022-08-26T15:35:42.949Z,4.80
2022-08-26T15:38:46.210Z,2.85
2022-08-26T15:41:49.216Z,4.10
2022-08-26T15:44:52.267Z,1.90
2022-08-26T15:48:01.252Z,4.18
2022-08-26T15:51:05.567Z,4.00
2022-08-26T15:54:10.299Z,4.07
2022-08-26T15:57:15.338Z,3.83
2022-08-26T16:00:18.744Z,3.60
2022-08-26T16:03:21.748Z,5.70
2022-08-26T16:06:24.641Z,4.80
2022-08-26T16:09:28.540Z,2.20
2022-08-26T16:12:30.971Z,4.53
2022-08-26T16:15:33.920Z,2.35
2022-08-26T16:18:37.118Z,3.38
2022-08-26T16:21:40.322Z,4.22
2022-08-26T16:24:42.832Z,3.78
2022-08-26T16:27:46.250Z,7.68
2022-08-26T16:30:49.536Z,4.75
2022-08-26T16:33:54.325Z,9.00
2022-08-26T16:36:57.510Z,5.03
2022-08-26T16:40:00.146Z,5.15
2022-08-26T16:43:02.447Z,4.18
2022-08-26T16:46:05.068Z,3.08
2022-08-26T16:49:08.493Z,3.45
2022-08-26T16:52:11.134Z,5.20
2022-08-26T16:55:16.514Z,4.18
2022-08-26T16:58:18.802Z,5.80
2022-08-26T17:01:21.043Z,5.47
2022-08-26T17:04:23.604Z,3.78
2022-08-26T17:07:26.777Z,6.38
2022-08-26T17:10:29.816Z,5.32
2022-08-26T17:13:35.460Z,4.03
2022-08-26T17:16:37.983Z,4.55
2022-08-26T17:19:40.975Z,3.47
2022-08-26T17:22:50.571Z,6.00
2022-08-26T17:25:53.472Z,4.07
2022-08-26T17:28:56.890Z,6.30
2022-08-26T17:31:59.540Z,3.97
2022-08-26T17:35:02.161Z,5.75
2022-08-26T17:38:04.886Z,4.97
2022-08-26T17:41:07.647Z,5.15
2022-08-26T17:44:10.327Z,5.22
2022-08-26T17:47:13.003Z,3.85
2022-08-26T17:50:15.678Z,4.82
2022-08-26T17:53:18.890Z,4.32
2022-08-26T17:56:22.026Z,4.88
2022-08-26T17:59:25.660Z,5.00
2022-08-26T18:02:33.089Z,3.72
2022-08-26T18:05:35.716Z,5.68
2022-08-26T18:08:38.942Z,4.03
2022-08-26T18:11:41.485Z,4.45
2022-08-26T18:14:44.205Z,4.25
2022-08-26T18:17:46.749Z,3.55
2022-08-26T18:20:52.617Z,5.10
2022-08-26T18:24:04.546Z,4.50
2022-08-26T18:27:08.010Z,4.30
2022-08-26T18:30:15.883Z,4.03
2022-08-26T18:33:20.636Z,3.30
2022-08-26T18:36:23.507Z,7.03
2022-08-26T18:39:26.151Z,4.28
2022-08-26T18:42:29.041Z,4.57
2022-08-26T18:45:31.647Z,3.67
2022-08-26T18:48:34.684Z,4.65
2022-08-26T18:51:37.566Z,6.15
2022-08-26T18:54:40.299Z,4.38
2022-08-26T18:57:43.013Z,5.80
2022-08-26T19:00:46.006Z,5.28
2022-08-26T19:03:49.139Z,3.25
2022-08-26T19:06:52.085Z,3.17
2022-08-26T19:09:55.097Z,4.10
2022-08-26T19:13:00.693Z,5.55
2022-08-26T19:16:04.997Z,6.45
2022-08-26T19:19:08.283Z,4.40
2022-08-26T19:22:10.782Z,9.27
2022-08-26T19:25:13.276Z,3.85
2022-08-26T19:28:16.479Z,4.25
2022-08-26T19:31:19.825Z,3.00
2022-08-26T19:34:23.262Z,5.22
2022-08-26T19:37:25.747Z,3.75
2022-08-26T19:40:28.828Z,3.53
2022-08-26T19:43:32.523Z,5.15
2022-08-26T19:46:36.376Z,3.72
2022-08-26T19:49:40.052Z,2.80
2022-08-26T19:52:43.544Z,6.32
2022-08-26T19:55:46.630Z,3.88
2022-08-26T19:58:49.883Z,4.80
2022-08-26T20:02:00.555Z,3.33
2022-08-26T20:05:04.101Z,3.75
2022-08-26T20:08:06.933Z,4.28
2022-08-26T20:11:14.126Z,3.33
2022-08-26T20:14:19.136Z,2.80
2022-08-26T20:17:23.640Z,2.38
2022-08-26T20:20:32.974Z,4.35
2022-08-26T20:23:36.813Z,2.67
2022-08-26T20:26:39.329Z,2.90
2022-08-26T20:29:42.150Z,2.60
2022-08-26T20:32:44.795Z,3.22
2022-08-26T20:35:47.397Z,2.92
2022-08-26T20:38:50.126Z,1.95
2022-08-26T20:41:52.891Z,2.97
2022-08-26T20:44:56.646Z,2.75
2022-08-26T20:47:59.600Z,2.85
2022-08-26T20:51:02.605Z,3.13
2022-08-26T20:54:05.594Z,2.72
2022-08-26T20:57:08.502Z,2.20
2022-08-26T21:00:11.144Z,2.20
2022-08-26T21:03:13.874Z,3.35
2022-08-26T21:06:16.086Z,4.57
2022-08-26T21:09:18.730Z,3.05
2022-08-26T21:12:21.379Z,3.25
2022-08-26T21:15:24.816Z,6.32
2022-08-26T21:18:27.669Z,3.92
2022-08-26T21:21:30.445Z,2.60
2022-08-26T21:24:33.138Z,2.55
2022-08-26T21:27:35.748Z,4.05
2022-08-26T21:30:38.292Z,4.45
2022-08-26T21:33:40.524Z,4.28
2022-08-26T21:36:43.299Z,2.88
2022-08-26T21:39:45.942Z,3.75
2022-08-26T21:42:48.904Z,3.13
2022-08-26T21:45:51.822Z,3.58
2022-08-26T21:48:55.007Z,2.65
2022-08-26T21:51:57.919Z,3.17
2022-08-26T21:55:00.797Z,2.28
2022-08-26T21:58:03.677Z,4.20
2022-08-26T22:01:06.199Z,3.58
2022-08-26T22:04:09.536Z,2.95
2022-08-26T22:07:12.770Z,3.22
2022-08-26T22:10:15.700Z,3.15
2022-08-26T22:13:18.690Z,2.63
2022-08-26T22:16:21.583Z,3.83
2022-08-26T22:19:24.503Z,3.47
2022-08-26T22:22:28.446Z,1.73
2022-08-26T22:25:30.923Z,3.13
2022-08-26T22:28:33.583Z,2.80
2022-08-26T22:31:37.606Z,2.70
2022-08-26T22:34:41.452Z,2.70
2022-08-26T22:37:44.004Z,4.90
2022-08-26T22:40:46.918Z,2.45
2022-08-26T22:43:49.532Z,3.90
2022-08-26T22:46:52.371Z,3.00
2022-08-26T22:49:55.190Z,3.38
2022-08-26T22:52:57.816Z,3.22
2022-08-26T22:55:59.986Z,2.80
2022-08-26T22:59:03.648Z,3.65
2022-08-26T23:02:06.873Z,3.15
2022-08-26T23:05:10.986Z,2.88
2022-08-26T23:08:14.235Z,3.20
2022-08-26T23:11:16.663Z,3.22
2022-08-26T23:14:18.847Z,2.47
2022-08-26T23:17:21.585Z,2.58
2022-08-26T23:20:24.545Z,3.42
2022-08-26T23:23:26.965Z,3.20
2022-08-26T23:26:29.752Z,2.63
2022-08-26T23:29:32.613Z,3.67
2022-08-26T23:32:35.934Z,3.10
2022-08-26T23:35:38.601Z,4.10
2022-08-26T23:38:43.367Z,3.13
2022-08-26T23:41:45.920Z,3.75
2022-08-26T23:44:48.656Z,2.75
2022-08-26T23:47:52.128Z,2.33
2022-08-26T23:50:55.295Z,2.78
2022-08-26T23:53:57.754Z,3.72
2022-08-26T23:56:59.881Z,2.13
